UHSSUHHH

Guest
Details From UHSS - Khomutovo
To UHHH - Novy
Flight Number -
Tags Generated
Created
Modified
Stats Distance 321 nm / 594 km
Max Altitude 0 ft / 0 m
Waypoints 3
Social Downloads 4
Likes 0
Share VATSIM

Download

Looking for another format? Having issues loading an existing format? Contact us
Advertisement - Login to hide

Notes

Generated

Route

UHSS UHHH UHHH

ID Type Via Altitude Latitude Longitude Leg Dist Tot Dist Heading (true) Name
O UHSS APT - 0 ft / 0 m 46.87036˚ 142.71727˚ - 0 nm - -
UHHH FIX - 0 ft / 0 m 48.52667˚ 135.18667˚ 320 nm 320 nm 291° / 285° -
O UHHH APT - 0 ft / 0 m 48.51643˚ 135.16989˚ 0 nm 320 nm 227° / 227° -

Altitude Profile

Advertisement - Login to hide

Weather


0- 5 10 15 20 25 30 35+ Temperature / ° C

Clouds and Precipitation
Forecast for 2017-12-12 12:00 UTC. Updated an hour ago

Ground ~20,000 ft ~40,000 ft Winds

UHSS

Details ICAO UHSS (UUS)
Name KHOMUTOVO
Region Russia
Timezone Asia/Sakhalin (UTC+11.0)
Stats Elevation 59 ft / 18 m (AMSL)
Location 46.885582° 142.717529°
Runways 1
Magnetic Variation 10.384° W

METAR

UHSS 120800Z 24005MPS 6000 -SHSN BKN032CB M03/M04 Q0989 R01/451042 NOSIG RMK MT OBSC QFE740/0987

Decode

TAF

TAF UHSS 120800Z 1209/1315 30006G11MPS 4000 -SHSN BLSN BKN020CB OVC070 TEMPO 1209/1315 0500 +SHSN BLSN BKN004 BKN012CB

Decode

Departure Runways

ID Width Length Bearing (true) Bearing (mag) Surface Threshold Offset Overrun Length
01 148 ft / 45 m 11,109 ft / 3,386 m 0.66° 11.04° Concrete 0 ft / 0 m 255 ft / 78 m
19 148 ft / 45 m 11,109 ft / 3,386 m 180.66° 191.04° Concrete 0 ft / 0 m 265 ft / 81 m

UHHH

Details ICAO UHHH (KHV)
Name NOVY
Region Russia
Timezone Asia/Vladivostok (UTC+10.0)
Stats Elevation 244 ft / 74 m (AMSL)
Location 48.528043° 135.188359°
Runways 2
Magnetic Variation 11.917° W

METAR

UHHH 120800Z 27002MPS 9999 SCT048 M11/M14 Q1011 R23L/850350 NOSIG RMK QFE752/1002

Decode

TAF

TAF TAF UHHH 120746Z 1209/1315 27003MPS 9999 SCT010 SCT020 TEMPO 1209/1218 2000 SN FM121800 23006MPS 9999 SCT010 SCT020CB TEMPO 1218/1309 3000 -SHSN

Decode

Destination Runways

ID Width Length Bearing (true) Bearing (mag) Surface Threshold Offset Overrun Length
05L 148 ft / 45 m 11,458 ft / 3,492 m 42.08° 54.00° Asphalt 0 ft / 0 m 247 ft / 75 m
05R 197 ft / 60 m 13,105 ft / 3,995 m 42.10° 54.02° Concrete 0 ft / 0 m 246 ft / 75 m
23L 197 ft / 60 m 13,105 ft / 3,995 m 222.13° 234.05° Concrete 0 ft / 0 m 247 ft / 75 m
23R 148 ft / 45 m 11,458 ft / 3,492 m 222.10° 234.02° Asphalt 0 ft / 0 m 175 ft / 53 m

Approach Navaids

Runway Type Ident Frequency Range Bearing (true) Bearing (mag) Slope Elevation
05R Localiser IUF 110.30 MHz 18 nm / 33 km 41.57° 53.48° - 244 ft / 74 m (AMSL)
05R Glidescope IUF 110.30 MHz 10 nm / 19 km 42.11° 54.03° 2.70° 244 ft / 74 m (AMSL)
23L Localiser IHI 110.90 MHz 18 nm / 33 km 221.90° 233.81° - 244 ft / 74 m (AMSL)
23L Glidescope IHI 110.90 MHz 10 nm / 19 km 222.11° 234.03° 2.70° 244 ft / 74 m (AMSL)

Popular Alternatives